Addison, Alabama
Current Conditions -  °F | °C
As of 11:15 AM on Friday 24 Oct 2014 (Local Time) from KCMD Reporting Station
Clear Clear  
Wind Chill: 17°   Ceiling: Unl
Heat Index: 17°   Visibility: 10mi
Dew Point:   Wind: 6mph
Humidity: 50%   Direction: 10°N
Pressure: 30.12"   Gusts: NA
Location:  34.2°N, 87.18°W
Report Text: KCMD 241615Z AUTO 01005KT 10SM CLR 17/07 A3012 RMK AO2 T01740069
Loading
Personal Weather Stations






























Interactive Weather Map
Tropical Storm Tracking
New forecast layout! Learn more

10-Day Weather Forecast

Advertisements
Track Severe Weather on mobile